Terminal Aerodrome Forecast
Issued by NWS Amarillo, TX

Home | Current Version | Previous Version | Text Only | Print | Product List | Glossary On
Versions: 1 2 3 4 5 6 7 8 9 10 11 12 13 14 15 16 17 18 19 20 21 22
656
FTUS44 KAMA 272320
TAFAMA
TAF
KAMA 272320Z 2800/2824 18018G27KT P6SM BKN150
     FM280600 18018KT P6SM SCT200 WS010/24050KT
     FM281300 20016G26KT P6SM FEW200
     FM281600 22016KT P6SM SKC=

USA.gov is the U.S. government's official web portal to all federal, state and local government web resources and services.